createdAt,value
2019-05-26T00:00:57.946Z,0.00
2019-05-26T00:01:57.934Z,0.00
2019-05-26T00:02:57.903Z,0.00
2019-05-26T00:03:57.876Z,0.00
2019-05-26T00:04:57.865Z,0.00
2019-05-26T00:05:57.901Z,0.00
2019-05-26T00:06:57.886Z,0.00
2019-05-26T00:07:57.856Z,0.00
2019-05-26T00:08:57.831Z,0.00
2019-05-26T00:09:57.818Z,0.00
2019-05-26T00:10:57.801Z,0.00
2019-05-26T00:11:57.868Z,0.00
2019-05-26T00:12:57.780Z,0.00
2019-05-26T00:13:57.810Z,0.00
2019-05-26T00:14:57.791Z,0.00
2019-05-26T00:15:57.783Z,0.00
2019-05-26T00:16:57.755Z,0.00
2019-05-26T00:17:57.722Z,0.00
2019-05-26T00:18:57.724Z,0.00
2019-05-26T00:19:57.731Z,0.00
2019-05-26T00:20:57.721Z,0.00
2019-05-26T00:21:57.689Z,0.00
2019-05-26T00:22:57.677Z,0.00
2019-05-26T00:23:57.677Z,0.00
2019-05-26T00:24:57.662Z,0.00
2019-05-26T00:25:57.644Z,0.00
2019-05-26T00:26:57.659Z,0.00
2019-05-26T00:27:57.634Z,0.00
2019-05-26T00:28:57.600Z,0.00
2019-05-26T00:29:57.614Z,0.00
2019-05-26T00:30:57.591Z,0.00
2019-05-26T00:31:57.608Z,0.00
2019-05-26T00:32:57.575Z,0.00
2019-05-26T00:33:57.561Z,0.00
2019-05-26T00:34:57.556Z,0.00
2019-05-26T00:35:57.554Z,0.00
2019-05-26T00:36:57.539Z,0.00
2019-05-26T00:37:57.505Z,0.00
2019-05-26T00:38:57.501Z,0.00
2019-05-26T00:39:57.482Z,0.00
2019-05-26T00:40:57.479Z,0.00
2019-05-26T00:41:57.490Z,0.00
2019-05-26T00:42:57.473Z,0.00
2019-05-26T00:43:57.486Z,0.00
2019-05-26T00:44:57.431Z,0.00
2019-05-26T00:45:57.447Z,0.00
2019-05-26T00:46:57.454Z,0.00
2019-05-26T00:47:57.404Z,0.00
2019-05-26T00:48:57.398Z,0.00
2019-05-26T00:49:57.393Z,0.00
2019-05-26T00:50:57.386Z,0.00
2019-05-26T00:51:57.385Z,0.00
2019-05-26T00:52:57.350Z,0.00
2019-05-26T00:53:57.339Z,0.00
2019-05-26T00:54:57.358Z,0.00
2019-05-26T00:55:57.320Z,0.00
2019-05-26T00:56:57.310Z,0.00
2019-05-26T00:57:57.310Z,0.00
2019-05-26T00:58:57.302Z,0.00
2019-05-26T00:59:57.302Z,0.00
2019-05-26T01:00:57.277Z,0.00
2019-05-26T01:01:57.292Z,0.00
2019-05-26T01:02:57.274Z,0.00
2019-05-26T01:03:57.259Z,0.00
2019-05-26T01:04:57.237Z,0.00
2019-05-26T01:05:57.220Z,0.00
2019-05-26T01:06:57.191Z,0.00
2019-05-26T01:08:06.097Z,0.00
2019-05-26T01:08:58.184Z,0.00
2019-05-26T01:09:57.183Z,0.00
2019-05-26T01:11:00.971Z,0.00
2019-05-26T01:11:57.167Z,0.00
2019-05-26T01:12:57.159Z,0.00
2019-05-26T01:13:57.116Z,0.00
2019-05-26T01:14:57.123Z,0.00
2019-05-26T01:15:57.108Z,0.00
2019-05-26T01:16:57.133Z,0.00
2019-05-26T01:17:57.113Z,0.00
2019-05-26T01:18:57.077Z,0.00
2019-05-26T01:19:57.072Z,0.00
2019-05-26T01:20:57.045Z,0.00
2019-05-26T01:21:57.042Z,0.00
2019-05-26T01:22:57.048Z,0.00
2019-05-26T01:23:57.015Z,0.00
2019-05-26T01:24:57.026Z,0.00
2019-05-26T01:25:57.025Z,0.00
2019-05-26T01:26:56.997Z,0.00
2019-05-26T01:27:56.995Z,0.00
2019-05-26T01:28:56.970Z,0.00
2019-05-26T01:29:56.949Z,0.00
2019-05-26T01:30:56.946Z,0.00
2019-05-26T01:31:56.929Z,0.00
2019-05-26T01:32:56.961Z,0.00
2019-05-26T01:33:56.904Z,0.00
2019-05-26T01:34:56.926Z,0.00
2019-05-26T01:35:56.901Z,0.00
2019-05-26T01:36:56.913Z,0.00
2019-05-26T01:37:56.891Z,0.00
2019-05-26T01:38:56.880Z,0.00
2019-05-26T01:39:56.904Z,0.00
2019-05-26T01:40:56.828Z,0.00
2019-05-26T01:41:56.837Z,0.00
2019-05-26T01:42:56.821Z,0.00
2019-05-26T01:43:56.823Z,0.00
2019-05-26T01:44:56.794Z,0.00
2019-05-26T01:45:56.825Z,0.00
2019-05-26T01:46:56.848Z,0.00
2019-05-26T01:47:56.758Z,0.00
2019-05-26T01:48:56.747Z,0.00
2019-05-26T01:49:56.732Z,0.00
2019-05-26T01:50:56.728Z,0.00
2019-05-26T01:51:56.716Z,0.00
2019-05-26T01:52:56.756Z,0.00
2019-05-26T01:53:56.715Z,0.00
2019-05-26T01:54:56.706Z,0.00
2019-05-26T01:55:56.680Z,0.00
2019-05-26T01:56:56.691Z,0.00
2019-05-26T01:57:56.655Z,0.00
2019-05-26T01:58:56.633Z,0.00
2019-05-26T01:59:56.648Z,0.00
2019-05-26T02:00:56.638Z,0.00
2019-05-26T02:01:58.779Z,0.00
2019-05-26T02:02:56.608Z,0.00
2019-05-26T02:03:56.601Z,0.00
2019-05-26T02:04:56.572Z,0.00
2019-05-26T02:05:56.584Z,0.00
2019-05-26T02:06:56.545Z,0.00
2019-05-26T02:07:56.553Z,0.00
2019-05-26T02:08:56.531Z,0.00
2019-05-26T02:09:56.511Z,0.00
2019-05-26T02:10:56.512Z,0.00
2019-05-26T02:11:56.514Z,0.00
2019-05-26T02:12:56.490Z,0.00
2019-05-26T02:13:56.517Z,0.00
2019-05-26T02:14:57.786Z,0.00
2019-05-26T02:15:56.745Z,0.00
2019-05-26T02:16:57.346Z,0.00
2019-05-26T02:17:57.632Z,0.00
2019-05-26T02:18:56.422Z,0.00
2019-05-26T02:19:56.577Z,0.00
2019-05-26T02:20:57.443Z,0.00
2019-05-26T02:21:56.397Z,0.00
2019-05-26T02:22:57.301Z,0.00
2019-05-26T02:23:56.365Z,0.00
2019-05-26T02:24:57.285Z,0.00
2019-05-26T02:25:56.555Z,0.00
2019-05-26T02:26:56.350Z,0.00
2019-05-26T02:27:56.540Z,0.00
2019-05-26T02:28:56.507Z,0.00
2019-05-26T02:29:56.399Z,0.00
2019-05-26T02:30:56.294Z,0.00
2019-05-26T02:31:56.423Z,0.00
2019-05-26T02:32:56.282Z,0.00
2019-05-26T02:33:56.539Z,0.00
2019-05-26T02:34:56.307Z,0.00
2019-05-26T02:35:56.235Z,0.00
2019-05-26T02:36:56.225Z,0.00
2019-05-26T02:37:56.210Z,0.00
2019-05-26T02:39:02.683Z,0.00
2019-05-26T02:39:57.183Z,0.00
2019-05-26T02:40:56.177Z,0.00
2019-05-26T02:41:56.181Z,0.00
2019-05-26T02:42:56.152Z,0.00
2019-05-26T02:43:56.148Z,0.00
2019-05-26T02:44:59.336Z,0.00
2019-05-26T02:45:56.117Z,0.00
2019-05-26T02:46:56.109Z,0.00
2019-05-26T02:47:56.131Z,0.00
2019-05-26T02:48:56.129Z,0.00
2019-05-26T02:49:56.075Z,0.00
2019-05-26T02:50:56.064Z,0.00
2019-05-26T02:51:56.080Z,0.00
2019-05-26T02:52:56.081Z,0.00
2019-05-26T02:53:56.045Z,0.00
2019-05-26T02:54:56.022Z,0.00
2019-05-26T02:55:56.010Z,0.00
2019-05-26T02:56:56.008Z,0.00
2019-05-26T02:57:55.992Z,0.00
2019-05-26T02:58:56.021Z,4.00
2019-05-26T02:59:55.970Z,4.00
2019-05-26T03:00:55.967Z,4.00
2019-05-26T03:02:03.639Z,0.00
2019-05-26T03:02:56.930Z,4.00
2019-05-26T03:03:55.921Z,4.00
2019-05-26T03:04:55.961Z,4.00
2019-05-26T03:05:55.966Z,4.00
2019-05-26T03:06:55.904Z,4.00
2019-05-26T03:07:55.888Z,8.00
2019-05-26T03:08:55.876Z,8.00
2019-05-26T03:09:55.885Z,8.00
2019-05-26T03:10:55.851Z,8.00
2019-05-26T03:11:55.837Z,12.00
2019-05-26T03:12:55.824Z,16.00
2019-05-26T03:13:55.831Z,16.00
2019-05-26T03:14:55.846Z,16.00
2019-05-26T03:15:55.801Z,20.00
2019-05-26T03:16:55.799Z,28.00
2019-05-26T03:17:55.771Z,28.00
2019-05-26T03:18:55.831Z,36.00
2019-05-26T03:19:55.787Z,40.00
2019-05-26T03:20:55.780Z,48.00
2019-05-26T03:21:55.750Z,52.00
2019-05-26T03:22:55.740Z,60.00
2019-05-26T03:23:55.727Z,68.00
2019-05-26T03:24:55.706Z,80.00
2019-05-26T03:25:55.719Z,88.00
2019-05-26T03:26:55.673Z,100.00
2019-05-26T03:27:55.664Z,112.00
2019-05-26T03:28:55.647Z,128.00
2019-05-26T03:29:56.198Z,140.00
2019-05-26T03:30:56.271Z,156.00
2019-05-26T03:31:56.477Z,176.00
2019-05-26T03:32:55.624Z,196.00
2019-05-26T03:33:55.784Z,212.00
2019-05-26T03:34:55.719Z,232.00
2019-05-26T03:35:55.799Z,256.00
2019-05-26T03:36:55.785Z,280.00
2019-05-26T03:37:55.632Z,308.00
2019-05-26T03:38:55.750Z,332.00
2019-05-26T03:39:55.605Z,364.00
2019-05-26T03:40:55.579Z,392.00
2019-05-26T03:41:55.573Z,424.00
2019-05-26T03:42:55.709Z,460.00
2019-05-26T03:43:55.536Z,492.00
2019-05-26T03:44:55.539Z,528.00
2019-05-26T03:45:55.568Z,564.00
2019-05-26T03:46:55.506Z,604.00
2019-05-26T03:48:02.479Z,644.00
2019-05-26T03:48:55.434Z,688.00
2019-05-26T03:49:55.419Z,728.00
2019-05-26T03:50:55.418Z,768.00
2019-05-26T03:51:55.399Z,816.00
2019-05-26T03:52:55.411Z,860.00
2019-05-26T03:53:55.377Z,908.00
2019-05-26T03:54:55.367Z,956.00
2019-05-26T03:55:55.364Z,1008.00
2019-05-26T03:56:55.373Z,1052.00
2019-05-26T03:57:55.346Z,1108.00
2019-05-26T03:58:55.318Z,1164.00
2019-05-26T03:59:55.313Z,1216.00
2019-05-26T04:00:55.321Z,1268.00
2019-05-26T04:01:57.656Z,1328.00
2019-05-26T04:02:55.279Z,1380.00
2019-05-26T04:03:55.272Z,1440.00
2019-05-26T04:04:55.269Z,1492.00
2019-05-26T04:05:55.256Z,1548.00
2019-05-26T04:06:55.238Z,1608.00
2019-05-26T04:07:55.224Z,1672.00
2019-05-26T04:08:55.214Z,1724.00
2019-05-26T04:10:04.530Z,1780.00
2019-05-26T04:10:56.236Z,1836.00
2019-05-26T04:11:55.182Z,1896.00
2019-05-26T04:12:55.169Z,1956.00
2019-05-26T04:13:55.159Z,2012.00
2019-05-26T04:14:55.224Z,2072.00
2019-05-26T04:15:55.151Z,2132.00
2019-05-26T04:16:56.428Z,2192.00
2019-05-26T04:17:55.113Z,2252.00
2019-05-26T04:18:55.106Z,2312.00
2019-05-26T04:19:55.092Z,2376.00
2019-05-26T04:20:55.090Z,2436.00
2019-05-26T04:21:55.089Z,2488.00
2019-05-26T04:22:55.099Z,2556.00
2019-05-26T04:23:55.051Z,2616.00
2019-05-26T04:24:55.035Z,2680.00
2019-05-26T04:25:55.059Z,2736.00
2019-05-26T04:26:55.019Z,2800.00
2019-05-26T04:27:55.009Z,2864.00
2019-05-26T04:28:54.997Z,2924.00
2019-05-26T04:29:54.984Z,2980.00
2019-05-26T04:30:54.983Z,3044.00
2019-05-26T04:31:54.990Z,3104.00
2019-05-26T04:32:54.954Z,3168.00
2019-05-26T04:33:54.940Z,3224.00
2019-05-26T04:34:54.941Z,3288.00
2019-05-26T04:35:54.960Z,3348.00
2019-05-26T04:36:54.908Z,3412.00
2019-05-26T04:37:54.912Z,3480.00
2019-05-26T04:38:54.888Z,3548.00
2019-05-26T04:39:54.876Z,3624.00
2019-05-26T04:40:54.884Z,3696.00
2019-05-26T04:41:54.857Z,3768.00
2019-05-26T04:42:54.954Z,3824.00
2019-05-26T04:43:54.830Z,3908.00
2019-05-26T04:44:54.827Z,3972.00
2019-05-26T04:45:54.834Z,4036.00
2019-05-26T04:46:54.807Z,4108.00
2019-05-26T04:47:54.786Z,4184.00
2019-05-26T04:48:54.798Z,4260.00
2019-05-26T04:49:54.769Z,4344.00
2019-05-26T04:50:54.755Z,4408.00
2019-05-26T04:51:54.757Z,4456.00
2019-05-26T04:53:06.277Z,4504.00
2019-05-26T04:53:55.729Z,4560.00
2019-05-26T04:54:54.710Z,4620.00
2019-05-26T04:55:54.700Z,4684.00
2019-05-26T04:56:54.735Z,4756.00
2019-05-26T04:57:54.682Z,4828.00
2019-05-26T04:58:54.667Z,4904.00
2019-05-26T04:59:54.656Z,4972.00
2019-05-26T05:00:54.646Z,5080.00
2019-05-26T05:01:54.643Z,5272.00
2019-05-26T05:02:54.640Z,5508.00
2019-05-26T05:03:54.612Z,5460.00
2019-05-26T05:04:54.600Z,5528.00
2019-05-26T05:05:54.591Z,5500.00
2019-05-26T05:06:54.593Z,5536.00
2019-05-26T05:07:54.574Z,5488.00
2019-05-26T05:08:54.558Z,5608.00
2019-05-26T05:09:54.566Z,5632.00
2019-05-26T05:10:54.536Z,5652.00
2019-05-26T05:11:54.535Z,5840.00
2019-05-26T05:12:54.515Z,6300.00
2019-05-26T05:13:54.506Z,6036.00
2019-05-26T05:14:54.492Z,5844.00
2019-05-26T05:15:54.482Z,5848.00
2019-05-26T05:16:54.480Z,5960.00
2019-05-26T05:17:54.462Z,5940.00
2019-05-26T05:18:54.452Z,6108.00
2019-05-26T05:19:54.504Z,6156.00
2019-05-26T05:20:54.428Z,6124.00
2019-05-26T05:21:54.432Z,6100.00
2019-05-26T05:22:54.407Z,6148.00
2019-05-26T05:23:54.394Z,6148.00
2019-05-26T05:24:54.385Z,6176.00
2019-05-26T05:25:54.375Z,6240.00
2019-05-26T05:26:54.372Z,6460.00
2019-05-26T05:27:54.380Z,6572.00
2019-05-26T05:28:54.340Z,6468.00
2019-05-26T05:29:54.329Z,6412.00
2019-05-26T05:30:54.322Z,6472.00
2019-05-26T05:31:54.322Z,6740.00
2019-05-26T05:32:54.297Z,7336.00
2019-05-26T05:33:54.315Z,7408.00
2019-05-26T05:34:54.283Z,7312.00
2019-05-26T05:35:54.266Z,7264.00
2019-05-26T05:36:54.267Z,6936.00
2019-05-26T05:37:54.243Z,6668.00
2019-05-26T05:38:54.231Z,6780.00
2019-05-26T05:39:54.220Z,7512.00
2019-05-26T05:40:59.366Z,10000.00
2019-05-26T05:41:55.232Z,8712.00
2019-05-26T05:42:54.188Z,8548.00
2019-05-26T05:43:54.176Z,10252.00
2019-05-26T05:44:54.167Z,11264.00
2019-05-26T05:45:54.158Z,10632.00
2019-05-26T05:46:54.163Z,10392.00
2019-05-26T05:47:54.131Z,10068.00
2019-05-26T05:48:54.120Z,11380.00
2019-05-26T05:49:54.114Z,14168.00
2019-05-26T05:50:54.099Z,15168.00
2019-05-26T05:51:54.119Z,15424.00
2019-05-26T05:52:54.111Z,16096.00
2019-05-26T05:53:54.067Z,16352.00
2019-05-26T05:54:54.057Z,16480.00
2019-05-26T05:55:54.046Z,17120.00
2019-05-26T05:56:55.756Z,17536.00
2019-05-26T05:57:54.037Z,17888.00
2019-05-26T05:58:54.013Z,18368.00
2019-05-26T05:59:54.000Z,18880.00
2019-05-26T06:00:53.998Z,19200.00
2019-05-26T06:01:53.979Z,19328.00
2019-05-26T06:02:53.980Z,19232.00
2019-05-26T06:03:53.956Z,19456.00
2019-05-26T06:04:53.946Z,20288.00
2019-05-26T06:05:53.932Z,20672.00
2019-05-26T06:06:53.923Z,21152.00
2019-05-26T06:07:53.928Z,21504.00
2019-05-26T06:08:53.920Z,21440.00
2019-05-26T06:09:53.890Z,21760.00
2019-05-26T06:10:53.878Z,21824.00
2019-05-26T06:11:56.848Z,22336.00
2019-05-26T06:12:53.867Z,23264.00
2019-05-26T06:13:53.847Z,23968.00
2019-05-26T06:14:53.863Z,24672.00
2019-05-26T06:15:53.824Z,25216.00
2019-05-26T06:16:53.815Z,25696.00
2019-05-26T06:17:53.814Z,23584.00
2019-05-26T06:18:53.795Z,27360.00
2019-05-26T06:19:53.783Z,27648.00
2019-05-26T06:20:53.772Z,22208.00
2019-05-26T06:21:53.772Z,12768.00
2019-05-26T06:22:53.763Z,18464.00
2019-05-26T06:23:53.738Z,27904.00
2019-05-26T06:24:53.729Z,28352.00
2019-05-26T06:25:53.715Z,28128.00
2019-05-26T06:26:53.703Z,28352.00
2019-05-26T06:27:53.731Z,27872.00
2019-05-26T06:28:53.682Z,26496.00
2019-05-26T06:29:59.011Z,26400.00
2019-05-26T06:30:54.660Z,26688.00
2019-05-26T06:31:53.741Z,26528.00
2019-05-26T06:32:53.652Z,26688.00
2019-05-26T06:33:53.662Z,26368.00
2019-05-26T06:34:53.615Z,25568.00
2019-05-26T06:35:53.607Z,26144.00
2019-05-26T06:36:53.597Z,26880.00
2019-05-26T06:37:53.596Z,26304.00
2019-05-26T06:38:53.575Z,26208.00
2019-05-26T06:39:53.573Z,26848.00
2019-05-26T06:40:53.554Z,27424.00
2019-05-26T06:41:53.551Z,27200.00
2019-05-26T06:42:53.569Z,27232.00
2019-05-26T06:43:53.520Z,27648.00
2019-05-26T06:44:54.234Z,28352.00
2019-05-26T06:45:53.498Z,29184.00
2019-05-26T06:46:53.485Z,29408.00
2019-05-26T06:47:53.477Z,29664.00
2019-05-26T06:48:53.491Z,29920.00
2019-05-26T06:49:53.469Z,30752.00
2019-05-26T06:50:53.441Z,32512.00
2019-05-26T06:51:53.430Z,34432.00
2019-05-26T06:52:53.418Z,35360.00
2019-05-26T06:53:53.419Z,32320.00
2019-05-26T06:54:53.399Z,24480.00
2019-05-26T06:55:53.400Z,14980.00
2019-05-26T06:56:53.378Z,10328.00
2019-05-26T06:57:53.366Z,10160.00
2019-05-26T06:58:53.365Z,10048.00
2019-05-26T06:59:53.345Z,9976.00
2019-05-26T07:00:53.354Z,9832.00
2019-05-26T07:01:53.324Z,9764.00
2019-05-26T07:02:53.325Z,9748.00
2019-05-26T07:03:53.317Z,9780.00
2019-05-26T07:04:53.295Z,9868.00
2019-05-26T07:05:53.284Z,9944.00
2019-05-26T07:06:53.272Z,10016.00
2019-05-26T07:07:53.260Z,10116.00
2019-05-26T07:08:53.289Z,10164.00
2019-05-26T07:09:53.308Z,10164.00
2019-05-26T07:10:53.227Z,10212.00
2019-05-26T07:11:59.678Z,10276.00
2019-05-26T07:12:54.204Z,10352.00
2019-05-26T07:13:53.205Z,10436.00
2019-05-26T07:14:53.199Z,10496.00
2019-05-26T07:15:53.173Z,10612.00
2019-05-26T07:16:53.162Z,10692.00
2019-05-26T07:17:53.150Z,10892.00
2019-05-26T07:18:53.150Z,11016.00
2019-05-26T07:19:53.129Z,11304.00
2019-05-26T07:20:53.117Z,13228.00
2019-05-26T07:21:53.129Z,11596.00
2019-05-26T07:22:53.095Z,16928.00
2019-05-26T07:23:53.093Z,18784.00
2019-05-26T07:24:53.075Z,11184.00
2019-05-26T07:25:53.064Z,22304.00
2019-05-26T07:26:53.052Z,12944.00
2019-05-26T07:27:53.053Z,17504.00
2019-05-26T07:28:53.045Z,16352.00
2019-05-26T07:29:53.018Z,13212.00
2019-05-26T07:30:53.007Z,12424.00
2019-05-26T07:31:52.996Z,12976.00
2019-05-26T07:32:52.985Z,26304.00
2019-05-26T07:33:52.994Z,45312.00
2019-05-26T07:34:52.965Z,49824.00
2019-05-26T07:35:52.954Z,22688.00
2019-05-26T07:36:52.942Z,50208.00
2019-05-26T07:37:52.931Z,50816.00
2019-05-26T07:38:52.929Z,51936.00
2019-05-26T07:39:52.913Z,54208.00
2019-05-26T07:40:52.916Z,54592.00
2019-05-26T07:42:08.777Z,53792.00
2019-05-26T07:42:53.879Z,52128.00
2019-05-26T07:43:52.876Z,54016.00
2019-05-26T07:44:52.854Z,54464.00
2019-05-26T07:45:52.843Z,53696.00
2019-05-26T07:46:52.834Z,52672.00
2019-05-26T07:47:52.823Z,54016.00
2019-05-26T07:48:52.824Z,55296.00
2019-05-26T07:49:52.801Z,53120.00
2019-05-26T07:50:52.793Z,52960.00
2019-05-26T07:51:52.786Z,55744.00
2019-05-26T07:52:52.768Z,56576.00
2019-05-26T07:53:56.018Z,56832.00
2019-05-26T07:54:52.750Z,56672.00
2019-05-26T07:55:52.741Z,57312.00
2019-05-26T07:56:52.725Z,57696.00
2019-05-26T07:57:52.720Z,56928.00
2019-05-26T07:58:52.735Z,56480.00
2019-05-26T07:59:52.692Z,56288.00
2019-05-26T08:00:52.685Z,58272.00
2019-05-26T08:01:52.672Z,57984.00
2019-05-26T08:02:52.667Z,54592.00
2019-05-26T08:03:52.659Z,34848.00
2019-05-26T08:04:52.642Z,20960.00
2019-05-26T08:05:52.628Z,44032.00
2019-05-26T08:06:52.620Z,59424.00
2019-05-26T08:07:52.606Z,59616.00
2019-05-26T08:08:52.634Z,58400.00
2019-05-26T08:09:52.599Z,62080.00
2019-05-26T08:10:52.573Z,63456.00
2019-05-26T08:11:52.563Z,62528.00
2019-05-26T08:12:52.557Z,62144.00
2019-05-26T08:13:52.542Z,64416.00
2019-05-26T08:14:52.565Z,64736.00
2019-05-26T08:15:52.530Z,62752.00
2019-05-26T08:16:52.509Z,62816.00
2019-05-26T08:17:52.508Z,63552.00
2019-05-26T08:18:52.487Z,62208.00
2019-05-26T08:19:52.493Z,62592.00
2019-05-26T08:20:52.485Z,65408.00
2019-05-26T08:21:54.507Z,66656.00
2019-05-26T08:22:52.445Z,65056.00
2019-05-26T08:23:52.432Z,65920.00
2019-05-26T08:24:52.434Z,64256.00
2019-05-26T08:25:52.814Z,64992.00
2019-05-26T08:26:52.403Z,66304.00
2019-05-26T08:27:52.392Z,63552.00
2019-05-26T08:28:52.403Z,65504.00
2019-05-26T08:29:52.377Z,66752.00
2019-05-26T08:30:52.359Z,68800.00
2019-05-26T08:31:52.354Z,66592.00
2019-05-26T08:32:52.337Z,67264.00
2019-05-26T08:33:52.331Z,64736.00
2019-05-26T08:34:52.329Z,45088.00
2019-05-26T08:35:52.309Z,21376.00
2019-05-26T08:36:52.296Z,41216.00
2019-05-26T08:37:52.286Z,65344.00
2019-05-26T08:38:52.271Z,68416.00
2019-05-26T08:39:52.281Z,69600.00
2019-05-26T08:40:52.249Z,68512.00
2019-05-26T08:41:52.238Z,65728.00
2019-05-26T08:42:52.260Z,55136.00
2019-05-26T08:43:52.218Z,46816.00
2019-05-26T08:44:52.220Z,39232.00
2019-05-26T08:45:52.200Z,38464.00
2019-05-26T08:46:52.186Z,26336.00
2019-05-26T08:47:52.195Z,24608.00
2019-05-26T08:48:52.167Z,29472.00
2019-05-26T08:49:52.167Z,21056.00
2019-05-26T08:50:52.141Z,33696.00
2019-05-26T08:51:52.131Z,44384.00
2019-05-26T08:52:52.126Z,41216.00
2019-05-26T08:53:52.125Z,55104.00
2019-05-26T08:54:52.118Z,59264.00
2019-05-26T08:55:52.104Z,52864.00
2019-05-26T08:56:52.082Z,51808.00
2019-05-26T08:57:52.084Z,50176.00
2019-05-26T08:58:52.084Z,49344.00
2019-05-26T08:59:52.061Z,34432.00
2019-05-26T09:00:52.091Z,18784.00
2019-05-26T09:01:52.029Z,35680.00
2019-05-26T09:02:52.025Z,47360.00
2019-05-26T09:03:52.021Z,43904.00
2019-05-26T09:04:52.039Z,33280.00
2019-05-26T09:05:51.988Z,31488.00
2019-05-26T09:06:51.982Z,25984.00
2019-05-26T09:07:51.964Z,50656.00
2019-05-26T09:08:51.966Z,60896.00
2019-05-26T09:09:51.954Z,72928.00
2019-05-26T09:10:51.935Z,74112.00
2019-05-26T09:11:51.931Z,76160.00
2019-05-26T09:13:00.908Z,76416.00
2019-05-26T09:13:52.901Z,75296.00
2019-05-26T09:14:51.972Z,76000.00
2019-05-26T09:15:51.879Z,46624.00
2019-05-26T09:16:51.865Z,22976.00
2019-05-26T09:17:51.860Z,16672.00
2019-05-26T09:18:51.856Z,30016.00
2019-05-26T09:19:51.866Z,42016.00
2019-05-26T09:20:51.828Z,61856.00
2019-05-26T09:21:51.819Z,70944.00
2019-05-26T09:22:51.805Z,73184.00
2019-05-26T09:23:51.798Z,74144.00
2019-05-26T09:24:51.842Z,70976.00
2019-05-26T09:25:51.787Z,73952.00
2019-05-26T09:26:51.770Z,85696.00
2019-05-26T09:27:51.752Z,79488.00
2019-05-26T09:28:51.741Z,43808.00
2019-05-26T09:29:51.733Z,36192.00
2019-05-26T09:30:51.736Z,64512.00
2019-05-26T09:31:51.715Z,81600.00
2019-05-26T09:32:51.700Z,89056.00
2019-05-26T09:33:51.695Z,82752.00
2019-05-26T09:34:51.695Z,80480.00
2019-05-26T09:35:51.687Z,86496.00
2019-05-26T09:36:51.661Z,82112.00
2019-05-26T09:37:51.650Z,84224.00
2019-05-26T09:38:51.651Z,86144.00
2019-05-26T09:39:51.634Z,85920.00
2019-05-26T09:40:51.630Z,69248.00
2019-05-26T09:41:51.612Z,42880.00
2019-05-26T09:42:51.602Z,68224.00
2019-05-26T09:43:51.589Z,85920.00
2019-05-26T09:44:51.591Z,84928.00
2019-05-26T09:45:51.580Z,85184.00
2019-05-26T09:46:51.572Z,85216.00
2019-05-26T09:47:51.546Z,81920.00
2019-05-26T09:48:51.535Z,86912.00
2019-05-26T09:49:51.530Z,85856.00
2019-05-26T09:50:51.531Z,86784.00
2019-05-26T09:51:51.519Z,65344.00
2019-05-26T09:52:51.505Z,32608.00
2019-05-26T09:54:01.193Z,35424.00
2019-05-26T09:54:52.474Z,52608.00
2019-05-26T09:55:51.478Z,76160.00
2019-05-26T09:56:51.460Z,74080.00
2019-05-26T09:57:51.482Z,64032.00
2019-05-26T09:58:51.442Z,47904.00
2019-05-26T09:59:51.435Z,36160.00
2019-05-26T10:00:51.440Z,43584.00
2019-05-26T10:01:51.405Z,45728.00
2019-05-26T10:02:51.397Z,41024.00
2019-05-26T10:03:51.385Z,58144.00
2019-05-26T10:04:51.376Z,85888.00
2019-05-26T10:05:51.447Z,87328.00
2019-05-26T10:06:51.353Z,88416.00
2019-05-26T10:07:51.347Z,92928.00
2019-05-26T10:08:51.486Z,89088.00
2019-05-26T10:09:51.340Z,89216.00
2019-05-26T10:10:51.324Z,87296.00
2019-05-26T10:11:51.301Z,83296.00
2019-05-26T10:12:51.294Z,85600.00
2019-05-26T10:13:51.282Z,81376.00
2019-05-26T10:14:51.281Z,82048.00
2019-05-26T10:15:51.283Z,79360.00
2019-05-26T10:16:51.253Z,82624.00
2019-05-26T10:17:51.245Z,82752.00
2019-05-26T10:18:51.233Z,85536.00
2019-05-26T10:19:51.224Z,86240.00
2019-05-26T10:20:51.222Z,80960.00
2019-05-26T10:21:51.247Z,80384.00
2019-05-26T10:22:51.196Z,86048.00
2019-05-26T10:23:53.144Z,87232.00
2019-05-26T10:24:51.172Z,86624.00
2019-05-26T10:25:51.199Z,86976.00
2019-05-26T10:26:51.156Z,91616.00
2019-05-26T10:27:51.144Z,91104.00
2019-05-26T10:28:51.137Z,88768.00
2019-05-26T10:29:51.135Z,87616.00
2019-05-26T10:30:51.124Z,91520.00
2019-05-26T10:31:51.106Z,92672.00
2019-05-26T10:32:51.096Z,93472.00
2019-05-26T10:33:51.092Z,93824.00
2019-05-26T10:34:51.076Z,95296.00
2019-05-26T10:35:51.107Z,95968.00
2019-05-26T10:36:51.055Z,94016.00
2019-05-26T10:37:51.046Z,90784.00
2019-05-26T10:38:51.035Z,87872.00
2019-05-26T10:39:51.027Z,90336.00
2019-05-26T10:40:51.017Z,91136.00
2019-05-26T10:41:51.247Z,92960.00
2019-05-26T10:42:51.005Z,94752.00
2019-05-26T10:43:50.989Z,95104.00
2019-05-26T10:44:50.977Z,95360.00
2019-05-26T10:45:50.969Z,97632.00
2019-05-26T10:46:50.972Z,96576.00
2019-05-26T10:47:50.949Z,95328.00
2019-05-26T10:48:50.943Z,96704.00
2019-05-26T10:49:50.937Z,98304.00
2019-05-26T10:50:50.925Z,99776.00
2019-05-26T10:51:50.921Z,97408.00
2019-05-26T10:52:50.901Z,96032.00
2019-05-26T10:53:50.893Z,98144.00
2019-05-26T10:54:50.886Z,97632.00
2019-05-26T10:55:50.875Z,98496.00
2019-05-26T10:56:50.882Z,100992.00
2019-05-26T10:57:50.856Z,100800.00
2019-05-26T10:58:50.856Z,97056.00
2019-05-26T10:59:50.850Z,96032.00
2019-05-26T11:00:50.826Z,94976.00
2019-05-26T11:01:50.828Z,95040.00
2019-05-26T11:02:50.808Z,93760.00
2019-05-26T11:03:50.799Z,96512.00
2019-05-26T11:04:50.797Z,97408.00
2019-05-26T11:05:50.779Z,98144.00
2019-05-26T11:06:50.786Z,97824.00
2019-05-26T11:07:50.765Z,96096.00
2019-05-26T11:08:50.767Z,99488.00
2019-05-26T11:09:50.747Z,104000.00
2019-05-26T11:10:50.734Z,102176.00
2019-05-26T11:11:50.749Z,101088.00
2019-05-26T11:12:50.716Z,100864.00
2019-05-26T11:14:02.410Z,102944.00
2019-05-26T11:14:51.699Z,103168.00
2019-05-26T11:15:50.686Z,102688.00
2019-05-26T11:16:51.187Z,103808.00
2019-05-26T11:17:50.682Z,106464.00
2019-05-26T11:18:50.677Z,108768.00
2019-05-26T11:19:50.647Z,105376.00
2019-05-26T11:20:50.641Z,102592.00
2019-05-26T11:21:50.646Z,104768.00
2019-05-26T11:22:50.624Z,104096.00
2019-05-26T11:23:50.619Z,101984.00
2019-05-26T11:24:50.651Z,105408.00
2019-05-26T11:25:50.595Z,105632.00
2019-05-26T11:26:50.609Z,102816.00
2019-05-26T11:27:50.583Z,102080.00
2019-05-26T11:28:50.593Z,104224.00
2019-05-26T11:29:50.565Z,102912.00
2019-05-26T11:30:50.548Z,107072.00
2019-05-26T11:31:50.556Z,108032.00
2019-05-26T11:32:50.535Z,103232.00
2019-05-26T11:33:50.519Z,104320.00
2019-05-26T11:35:01.116Z,103552.00
2019-05-26T11:35:51.502Z,108864.00
2019-05-26T11:36:50.515Z,109280.00
2019-05-26T11:37:50.489Z,109440.00
2019-05-26T11:38:50.474Z,106816.00
2019-05-26T11:39:50.479Z,108064.00
2019-05-26T11:40:50.489Z,107712.00
2019-05-26T11:41:54.911Z,109312.00
2019-05-26T11:42:50.457Z,107296.00
2019-05-26T11:43:50.432Z,108672.00
2019-05-26T11:44:50.424Z,108896.00
2019-05-26T11:45:50.410Z,79328.00
2019-05-26T11:46:50.401Z,101344.00
2019-05-26T11:47:50.403Z,103968.00
2019-05-26T11:48:50.390Z,106112.00
2019-05-26T11:49:50.374Z,106848.00
2019-05-26T11:50:50.364Z,100896.00
2019-05-26T11:51:50.356Z,88128.00
2019-05-26T11:52:50.360Z,109344.00
2019-05-26T11:53:50.338Z,90880.00
2019-05-26T11:54:50.329Z,45568.00
2019-05-26T11:55:50.318Z,77760.00
2019-05-26T11:56:50.308Z,107296.00
2019-05-26T11:57:50.311Z,110528.00
2019-05-26T11:58:50.290Z,110112.00
2019-05-26T11:59:50.282Z,107296.00
2019-05-26T12:00:50.270Z,105760.00
2019-05-26T12:01:50.262Z,105280.00
2019-05-26T12:02:50.263Z,102144.00
2019-05-26T12:03:50.248Z,107488.00
2019-05-26T12:04:50.234Z,24160.00
2019-05-26T12:05:50.225Z,48928.00
2019-05-26T12:06:50.215Z,66752.00
2019-05-26T12:07:50.217Z,93376.00
2019-05-26T12:08:50.196Z,99552.00
2019-05-26T12:09:50.197Z,105152.00
2019-05-26T12:10:50.182Z,104992.00
2019-05-26T12:11:50.169Z,103136.00